Cresco, Iowa
Current Conditions -  °F | °C
As of 10:55 AM on Friday 24 Oct 2014 (Local Time) from KDEH Reporting Station
Broken Clouds Broken Clouds  
Wind Chill: 57°   Ceiling: 5000
Heat Index: 57°   Visibility: 9mi
Dew Point: 55°   Wind: 10mph
Humidity: 94%   Direction: 160°SSE
Pressure: 29.96"   Gusts: NA
Location:  43.38°N, 92.11°W
Report Text: KDEH 241555Z AUTO 16009KT 9SM BKN050 14/13 A2996 RMK AO2
Loading
Personal Weather Stations






























Interactive Weather Map
Tropical Storm Tracking
New forecast layout! Learn more

10-Day Weather Forecast

Advertisements
Track Severe Weather on mobile